createdAt,value
2022-08-25T00:00:10.320Z,99.90
2022-08-25T00:02:37.788Z,99.90
2022-08-25T00:05:05.247Z,99.90
2022-08-25T00:07:33.425Z,99.90
2022-08-25T00:10:00.374Z,99.90
2022-08-25T00:12:27.072Z,99.90
2022-08-25T00:14:53.803Z,99.90
2022-08-25T00:19:47.565Z,99.90
2022-08-25T00:22:14.270Z,99.90
2022-08-25T00:24:40.931Z,99.90
2022-08-25T00:27:07.601Z,99.90
2022-08-25T00:29:34.448Z,99.90
2022-08-25T00:32:01.107Z,99.90
2022-08-25T00:34:31.462Z,99.90
2022-08-25T00:36:58.460Z,99.90
2022-08-25T00:41:53.020Z,99.90
2022-08-25T00:44:19.771Z,99.90
2022-08-25T00:46:48.627Z,99.90
2022-08-25T00:49:36.483Z,99.90
2022-08-25T00:52:06.483Z,99.90
2022-08-25T00:54:40.792Z,99.90
2022-08-25T00:57:07.733Z,99.90
2022-08-25T00:59:34.416Z,99.90
2022-08-25T01:09:22.832Z,99.90
2022-08-25T01:11:49.626Z,99.90
2022-08-25T01:14:17.862Z,99.90
2022-08-25T01:16:44.744Z,99.90
2022-08-25T01:19:15.203Z,99.90
2022-08-25T01:21:51.977Z,99.90
2022-08-25T01:24:24.377Z,99.90
2022-08-25T01:26:51.342Z,99.90
2022-08-25T01:31:59.275Z,99.90
2022-08-25T01:34:27.848Z,99.90
2022-08-25T01:41:48.903Z,99.90
2022-08-25T01:44:18.358Z,99.90
2022-08-25T01:51:48.892Z,99.90
2022-08-25T01:56:42.645Z,99.90
2022-08-25T01:59:09.419Z,99.90
2022-08-25T02:01:36.182Z,99.90
2022-08-25T02:04:03.036Z,99.90
2022-08-25T02:06:32.322Z,99.90
2022-08-25T02:09:05.508Z,99.90
2022-08-25T02:11:32.408Z,99.90
2022-08-25T02:13:59.278Z,99.90
2022-08-25T02:16:29.536Z,99.90
2022-08-25T02:21:23.708Z,99.90
2022-08-25T02:23:50.630Z,99.90
2022-08-25T02:26:19.021Z,99.90
2022-08-25T02:28:46.921Z,99.90
2022-08-25T02:31:13.897Z,99.90
2022-08-25T02:33:40.641Z,99.90
2022-08-25T02:36:07.581Z,99.90
2022-08-25T02:38:34.684Z,99.90
2022-08-25T02:41:01.645Z,99.90
2022-08-25T02:43:28.573Z,99.90
2022-08-25T02:45:59.333Z,99.90
2022-08-25T02:48:26.086Z,99.90
2022-08-25T02:50:52.836Z,99.90
2022-08-25T02:53:20.240Z,99.90
2022-08-25T02:55:47.480Z,99.90
2022-08-25T02:58:15.069Z,99.90
2022-08-25T03:00:43.248Z,99.90
2022-08-25T03:03:10.019Z,99.90
2022-08-25T03:05:36.692Z,99.90
2022-08-25T03:08:03.964Z,99.90
2022-08-25T03:10:30.971Z,99.90
2022-08-25T03:12:57.787Z,99.90
2022-08-25T03:15:26.216Z,99.90
2022-08-25T03:17:54.090Z,99.90
2022-08-25T03:20:21.773Z,99.90
2022-08-25T03:22:48.983Z,99.90
2022-08-25T03:25:34.503Z,99.90
2022-08-25T03:28:01.318Z,99.90
2022-08-25T03:30:28.140Z,99.90
2022-08-25T03:32:54.896Z,99.90
2022-08-25T03:35:21.928Z,99.90
2022-08-25T03:37:48.756Z,99.90
2022-08-25T03:40:17.495Z,99.90
2022-08-25T03:42:45.296Z,99.90
2022-08-25T03:45:13.081Z,99.90
2022-08-25T03:47:40.369Z,99.90
2022-08-25T03:50:09.647Z,99.90
2022-08-25T03:52:42.242Z,99.90
2022-08-25T03:55:10.497Z,99.90
2022-08-25T03:57:37.268Z,99.90
2022-08-25T04:00:06.661Z,99.90
2022-08-25T04:02:33.860Z,99.90
2022-08-25T04:05:01.075Z,99.90
2022-08-25T04:07:27.787Z,99.90
2022-08-25T04:09:56.148Z,99.90
2022-08-25T04:12:23.220Z,99.90
2022-08-25T04:14:50.267Z,99.90
2022-08-25T04:19:44.309Z,99.90
2022-08-25T04:22:11.103Z,99.90
2022-08-25T04:24:40.312Z,99.90
2022-08-25T04:27:07.235Z,99.90
2022-08-25T04:29:33.994Z,99.90
2022-08-25T04:32:01.057Z,99.90
2022-08-25T04:37:00.853Z,99.90
2022-08-25T04:39:27.628Z,99.90
2022-08-25T04:41:54.360Z,99.90
2022-08-25T04:44:21.487Z,99.90
2022-08-25T04:46:49.180Z,99.90
2022-08-25T04:49:15.908Z,99.90
2022-08-25T04:51:42.707Z,99.90
2022-08-25T04:54:12.040Z,99.90
2022-08-25T04:56:40.773Z,99.90
2022-08-25T04:59:11.155Z,99.90
2022-08-25T05:01:38.266Z,99.90
2022-08-25T05:04:06.333Z,99.90
2022-08-25T05:06:33.482Z,99.90
2022-08-25T05:09:01.671Z,99.90
2022-08-25T05:11:29.612Z,99.90
2022-08-25T05:13:56.709Z,99.90
2022-08-25T05:16:25.280Z,99.90
2022-08-25T05:18:52.074Z,99.90
2022-08-25T05:21:24.241Z,99.90
2022-08-25T05:23:50.955Z,99.90
2022-08-25T05:26:20.489Z,99.90
2022-08-25T05:28:51.267Z,99.90
2022-08-25T05:31:18.195Z,99.90
2022-08-25T05:33:44.997Z,99.90
2022-08-25T05:36:12.555Z,99.90
2022-08-25T05:41:13.224Z,99.90
2022-08-25T05:43:40.586Z,99.90
2022-08-25T05:48:34.662Z,99.90
2022-08-25T05:51:02.585Z,99.90
2022-08-25T05:53:31.065Z,99.90
2022-08-25T05:56:01.108Z,99.90
2022-08-25T05:58:28.325Z,99.90
2022-08-25T06:00:55.715Z,99.90
2022-08-25T06:03:22.492Z,99.90
2022-08-25T06:05:49.406Z,99.90
2022-08-25T06:08:16.183Z,99.90
2022-08-25T06:10:42.964Z,99.90
2022-08-25T06:13:09.654Z,99.90
2022-08-25T06:15:36.637Z,99.90
2022-08-25T06:20:31.933Z,99.90
2022-08-25T06:22:59.007Z,99.90
2022-08-25T06:25:26.062Z,99.90
2022-08-25T06:27:53.919Z,99.90
2022-08-25T06:30:28.717Z,99.90
2022-08-25T06:35:24.069Z,99.90
2022-08-25T06:37:50.841Z,99.90
2022-08-25T06:40:17.686Z,99.90
2022-08-25T06:42:48.596Z,99.90
2022-08-25T06:50:12.403Z,99.90
2022-08-25T06:52:39.223Z,99.90
2022-08-25T06:55:06.938Z,99.90
2022-08-25T06:57:35.877Z,99.90
2022-08-25T07:00:05.712Z,99.90
2022-08-25T07:02:33.266Z,99.90
2022-08-25T07:07:43.037Z,99.90
2022-08-25T07:10:11.426Z,99.90
2022-08-25T07:12:38.307Z,99.90
2022-08-25T07:15:21.221Z,99.90
2022-08-25T07:17:48.540Z,99.90
2022-08-25T07:20:16.081Z,99.90
2022-08-25T07:22:43.067Z,99.90
2022-08-25T07:25:11.222Z,99.90
2022-08-25T07:27:38.797Z,99.90
2022-08-25T07:30:08.554Z,99.90
2022-08-25T07:32:38.011Z,99.90
2022-08-25T07:35:19.589Z,99.90
2022-08-25T07:37:50.777Z,99.90
2022-08-25T07:40:23.419Z,99.90
2022-08-25T07:42:52.272Z,99.90
2022-08-25T07:45:20.826Z,99.90
2022-08-25T07:47:48.331Z,99.90
2022-08-25T07:52:49.732Z,99.90
2022-08-25T07:57:48.976Z,99.90
2022-08-25T08:02:47.241Z,99.90
2022-08-25T08:05:14.459Z,99.90
2022-08-25T08:07:42.147Z,99.90
2022-08-25T08:10:42.429Z,99.90
2022-08-25T08:12:58.813Z,99.90
2022-08-25T08:15:25.633Z,99.90
2022-08-25T08:17:56.591Z,99.90
2022-08-25T08:20:24.960Z,99.90
2022-08-25T08:22:51.853Z,99.90
2022-08-25T08:25:26.517Z,99.90
2022-08-25T08:27:55.156Z,99.90
2022-08-25T08:30:25.911Z,99.90
2022-08-25T08:33:09.213Z,99.90
2022-08-25T08:35:36.688Z,99.90
2022-08-25T08:38:03.812Z,99.90
2022-08-25T08:40:30.699Z,99.90
2022-08-25T08:43:17.984Z,99.90
2022-08-25T08:45:50.351Z,99.90
2022-08-25T08:48:40.754Z,99.90
2022-08-25T08:51:12.877Z,99.90
2022-08-25T08:53:50.981Z,99.90
2022-08-25T08:56:31.780Z,99.90
2022-08-25T08:59:05.177Z,99.90
2022-08-25T09:01:53.954Z,99.90
2022-08-25T09:04:36.833Z,99.90
2022-08-25T09:07:06.501Z,99.90
2022-08-25T09:09:35.849Z,99.90
2022-08-25T09:12:24.850Z,99.90
2022-08-25T09:15:12.729Z,99.90
2022-08-25T09:17:54.637Z,99.90
2022-08-25T09:20:59.774Z,99.90
2022-08-25T09:23:39.931Z,99.90
2022-08-25T09:26:30.745Z,99.90
2022-08-25T09:29:23.267Z,99.90
2022-08-25T09:31:52.208Z,99.90
2022-08-25T09:34:23.681Z,99.90
2022-08-25T09:36:52.912Z,99.90
2022-08-25T09:39:22.825Z,99.90
2022-08-25T09:41:56.277Z,99.90
2022-08-25T09:44:28.292Z,99.90
2022-08-25T09:47:15.240Z,99.90
2022-08-25T09:49:56.721Z,99.90
2022-08-25T09:52:31.791Z,99.90
2022-08-25T09:55:14.652Z,99.90
2022-08-25T09:57:44.418Z,99.90
2022-08-25T10:00:21.598Z,99.90
2022-08-25T10:03:10.759Z,99.90
2022-08-25T10:06:04.971Z,99.90
2022-08-25T10:08:37.446Z,99.90
2022-08-25T10:11:09.065Z,99.90
2022-08-25T10:13:46.961Z,99.90
2022-08-25T10:16:24.415Z,99.90
2022-08-25T10:19:12.186Z,99.90
2022-08-25T10:21:42.730Z,99.90
2022-08-25T10:24:11.304Z,99.90
2022-08-25T10:27:03.313Z,99.90
2022-08-25T10:30:04.472Z,99.90
2022-08-25T10:32:49.483Z,99.90
2022-08-25T10:35:23.465Z,99.90
2022-08-25T10:38:35.237Z,99.90
2022-08-25T10:41:07.229Z,99.90
2022-08-25T10:44:03.707Z,99.90
2022-08-25T10:46:49.865Z,99.90
2022-08-25T10:49:21.578Z,99.90
2022-08-25T10:51:54.550Z,99.90
2022-08-25T10:54:50.351Z,99.90
2022-08-25T10:57:29.689Z,99.90
2022-08-25T11:00:05.906Z,99.90
2022-08-25T11:02:50.901Z,99.90
2022-08-25T11:05:43.662Z,99.90
2022-08-25T11:08:29.433Z,99.90
2022-08-25T11:11:04.574Z,99.90
2022-08-25T11:13:59.994Z,99.90
2022-08-25T11:16:41.951Z,99.90
2022-08-25T11:19:36.636Z,99.90
2022-08-25T11:22:24.595Z,99.90
2022-08-25T11:25:16.072Z,99.90
2022-08-25T11:27:47.911Z,99.90
2022-08-25T11:30:17.272Z,99.90
2022-08-25T11:32:48.998Z,99.90
2022-08-25T11:35:17.768Z,99.90
2022-08-25T11:37:56.459Z,99.90
2022-08-25T11:40:29.220Z,99.90
2022-08-25T11:42:59.463Z,99.90
2022-08-25T11:45:54.225Z,99.90
2022-08-25T11:48:35.781Z,99.90
2022-08-25T11:51:06.752Z,99.90
2022-08-25T11:53:42.336Z,99.90
2022-08-25T11:56:42.125Z,99.90
2022-08-25T11:59:09.018Z,99.90
2022-08-25T12:01:44.508Z,99.90
2022-08-25T12:04:29.840Z,99.90
2022-08-25T12:07:06.988Z,99.90
2022-08-25T12:09:35.007Z,99.90
2022-08-25T12:12:37.767Z,99.90
2022-08-25T12:15:35.166Z,99.90
2022-08-25T12:18:15.394Z,99.90
2022-08-25T12:20:57.410Z,99.90
2022-08-25T12:23:36.456Z,99.90
2022-08-25T12:26:08.148Z,99.90
2022-08-25T12:28:52.273Z,99.90
2022-08-25T12:31:44.046Z,99.90
2022-08-25T12:34:39.886Z,99.90
2022-08-25T12:37:27.682Z,99.90
2022-08-25T12:40:00.329Z,99.90
2022-08-25T12:42:38.183Z,99.90
2022-08-25T12:45:26.135Z,99.90
2022-08-25T12:47:54.624Z,99.90
2022-08-25T12:50:39.315Z,99.90
2022-08-25T12:53:17.846Z,99.90
2022-08-25T12:55:50.117Z,99.90
2022-08-25T12:58:17.036Z,99.90
2022-08-25T13:01:17.480Z,99.90
2022-08-25T13:04:09.408Z,99.90
2022-08-25T13:06:54.615Z,99.90
2022-08-25T13:09:49.553Z,99.90
2022-08-25T13:12:44.651Z,99.90
2022-08-25T13:15:25.720Z,99.90
2022-08-25T13:17:52.758Z,99.90
2022-08-25T13:20:23.302Z,99.90
2022-08-25T13:22:57.186Z,99.90
2022-08-25T13:25:31.999Z,99.90
2022-08-25T13:28:01.231Z,98.60
2022-08-25T13:30:30.544Z,99.90
2022-08-25T13:32:57.683Z,99.90
2022-08-25T13:35:33.013Z,99.90
2022-08-25T13:38:13.416Z,99.90
2022-08-25T13:40:40.195Z,99.90
2022-08-25T13:43:11.634Z,99.90
2022-08-25T13:45:41.903Z,99.90
2022-08-25T13:48:22.851Z,99.90
2022-08-25T13:50:52.697Z,99.90
2022-08-25T13:53:24.117Z,99.90
2022-08-25T13:55:52.288Z,99.90
2022-08-25T13:58:24.291Z,98.50
2022-08-25T14:01:23.016Z,99.90
2022-08-25T14:04:26.678Z,99.90
2022-08-25T14:07:33.677Z,97.30
2022-08-25T14:10:06.526Z,98.70
2022-08-25T14:12:33.746Z,97.90
2022-08-25T14:15:00.477Z,97.70
2022-08-25T14:17:39.395Z,98.40
2022-08-25T14:20:16.255Z,98.20
2022-08-25T14:22:43.053Z,97.30
2022-08-25T14:25:11.265Z,96.40
2022-08-25T14:28:03.679Z,96.00
2022-08-25T14:30:29.648Z,97.20
2022-08-25T14:32:56.640Z,96.90
2022-08-25T14:35:23.453Z,97.90
2022-08-25T14:37:50.227Z,98.70
2022-08-25T14:40:20.036Z,97.10
2022-08-25T14:42:47.625Z,96.60
2022-08-25T14:45:17.895Z,97.30
2022-08-25T14:47:46.192Z,97.80
2022-08-25T14:50:24.095Z,97.70
2022-08-25T14:52:51.957Z,99.00
2022-08-25T14:55:29.738Z,99.20
2022-08-25T14:57:59.249Z,99.90
2022-08-25T15:00:26.241Z,99.90
2022-08-25T15:02:53.072Z,99.90
2022-08-25T15:05:27.011Z,99.90
2022-08-25T15:08:13.948Z,99.90
2022-08-25T15:10:40.759Z,99.90
2022-08-25T15:13:07.549Z,99.90
2022-08-25T15:15:36.984Z,99.90
2022-08-25T15:18:04.087Z,99.90
2022-08-25T15:20:31.708Z,99.90
2022-08-25T15:22:58.492Z,99.90
2022-08-25T15:25:25.309Z,99.90
2022-08-25T15:27:52.032Z,99.90
2022-08-25T15:30:18.854Z,99.90
2022-08-25T15:32:48.457Z,99.60
2022-08-25T15:35:15.621Z,99.90
2022-08-25T15:37:42.392Z,99.90
2022-08-25T15:40:09.493Z,99.90
2022-08-25T15:42:38.032Z,99.90
2022-08-25T15:45:10.528Z,99.20
2022-08-25T15:47:37.304Z,99.40
2022-08-25T15:50:10.454Z,98.60
2022-08-25T15:52:46.496Z,99.30
2022-08-25T15:55:14.547Z,98.20
2022-08-25T15:57:42.310Z,98.20
2022-08-25T16:00:13.713Z,97.50
2022-08-25T16:02:45.489Z,97.50
2022-08-25T16:05:13.668Z,97.90
2022-08-25T16:07:43.131Z,99.10
2022-08-25T16:10:12.540Z,99.90
2022-08-25T16:12:40.097Z,99.90
2022-08-25T16:15:10.100Z,99.90
2022-08-25T16:17:40.513Z,99.90
2022-08-25T16:20:08.204Z,99.90
2022-08-25T16:22:40.639Z,99.90
2022-08-25T16:25:07.861Z,99.60
2022-08-25T16:27:38.820Z,99.90
2022-08-25T16:30:11.775Z,99.90
2022-08-25T16:32:40.636Z,99.90
2022-08-25T16:35:10.881Z,99.90
2022-08-25T16:37:37.920Z,99.90
2022-08-25T16:40:05.306Z,99.90
2022-08-25T16:42:32.075Z,99.90
2022-08-25T16:44:59.914Z,99.90
2022-08-25T16:47:27.000Z,99.90
2022-08-25T16:49:53.984Z,99.90
2022-08-25T16:52:40.669Z,99.90
2022-08-25T16:55:13.732Z,99.90
2022-08-25T16:57:43.481Z,99.90
2022-08-25T17:00:13.400Z,99.90
2022-08-25T17:02:40.713Z,99.90
2022-08-25T17:05:08.659Z,99.90
2022-08-25T17:07:37.308Z,99.90
2022-08-25T17:10:06.343Z,99.90
2022-08-25T17:12:35.368Z,99.90
2022-08-25T17:15:06.089Z,99.90
2022-08-25T17:17:35.966Z,99.90
2022-08-25T17:20:04.997Z,99.90
2022-08-25T17:22:31.978Z,99.80
2022-08-25T17:25:00.918Z,99.90
2022-08-25T17:27:27.984Z,99.30
2022-08-25T17:29:54.667Z,99.90
2022-08-25T17:32:30.308Z,99.90
2022-08-25T17:37:24.673Z,99.60
2022-08-25T17:40:03.100Z,99.90
2022-08-25T17:42:31.600Z,99.90
2022-08-25T17:44:58.375Z,99.90
2022-08-25T17:47:27.159Z,99.90
2022-08-25T17:49:54.084Z,99.90
2022-08-25T17:52:25.389Z,99.90
2022-08-25T17:54:52.652Z,99.90
2022-08-25T17:57:25.009Z,99.90
2022-08-25T17:59:51.722Z,99.90
2022-08-25T18:02:18.614Z,99.90
2022-08-25T18:04:46.317Z,99.90
2022-08-25T18:07:13.829Z,99.90
2022-08-25T18:09:40.527Z,99.90
2022-08-25T18:12:08.267Z,99.90
2022-08-25T18:14:38.595Z,99.90
2022-08-25T18:17:05.405Z,99.90
2022-08-25T18:19:33.032Z,99.90
2022-08-25T18:22:04.258Z,99.90
2022-08-25T18:24:31.227Z,99.90
2022-08-25T18:26:58.901Z,99.90
2022-08-25T18:29:26.017Z,99.90
2022-08-25T18:31:58.350Z,99.90
2022-08-25T18:34:27.252Z,99.90
2022-08-25T18:36:57.130Z,99.90
2022-08-25T18:42:10.880Z,99.90
2022-08-25T18:44:37.585Z,99.90
2022-08-25T18:47:07.506Z,99.90
2022-08-25T18:49:34.583Z,99.90
2022-08-25T18:54:28.637Z,99.90
2022-08-25T18:56:56.343Z,99.90
2022-08-25T18:59:23.609Z,99.90
2022-08-25T19:01:52.598Z,99.90
2022-08-25T19:04:19.766Z,99.90
2022-08-25T19:06:46.720Z,99.90
2022-08-25T19:09:13.475Z,99.90
2022-08-25T19:11:43.332Z,99.90
2022-08-25T19:14:12.642Z,99.90
2022-08-25T19:16:42.398Z,99.90
2022-08-25T19:19:13.217Z,99.90
2022-08-25T19:21:41.209Z,99.90
2022-08-25T19:24:08.759Z,99.90
2022-08-25T19:29:05.214Z,99.90
2022-08-25T19:31:35.935Z,99.90
2022-08-25T19:34:02.951Z,99.90
2022-08-25T19:38:58.687Z,99.90
2022-08-25T19:41:26.162Z,99.90
2022-08-25T19:43:56.103Z,99.90
2022-08-25T19:46:33.161Z,99.90
2022-08-25T19:49:09.071Z,99.90
2022-08-25T19:51:40.748Z,99.90
2022-08-25T19:54:09.064Z,99.90
2022-08-25T19:56:38.315Z,99.90
2022-08-25T19:59:11.173Z,99.90
2022-08-25T20:01:37.940Z,99.90
2022-08-25T20:04:07.222Z,99.90
2022-08-25T20:06:34.152Z,99.90
2022-08-25T20:09:02.109Z,99.90
2022-08-25T20:11:29.261Z,99.90
2022-08-25T20:14:00.346Z,99.90
2022-08-25T20:16:30.555Z,99.90
2022-08-25T20:21:27.767Z,99.90
2022-08-25T20:24:16.440Z,99.90
2022-08-25T20:26:43.309Z,99.90
2022-08-25T20:29:10.929Z,99.90
2022-08-25T20:31:38.140Z,99.90
2022-08-25T20:34:05.768Z,99.90
2022-08-25T20:36:32.591Z,99.90
2022-08-25T20:38:59.305Z,99.90
2022-08-25T20:41:26.104Z,99.90
2022-08-25T20:43:52.821Z,99.90
2022-08-25T20:51:18.723Z,99.90
2022-08-25T20:53:45.602Z,99.90
2022-08-25T20:56:14.302Z,99.90
2022-08-25T20:58:41.750Z,99.90
2022-08-25T21:01:20.357Z,99.90
2022-08-25T21:03:50.316Z,99.90
2022-08-25T21:06:17.216Z,99.90
2022-08-25T21:08:46.632Z,99.90
2022-08-25T21:11:15.116Z,99.90
2022-08-25T21:16:09.195Z,99.90
2022-08-25T21:18:36.476Z,99.90
2022-08-25T21:21:15.537Z,99.90
2022-08-25T21:23:44.989Z,99.90
2022-08-25T21:26:23.405Z,99.90
2022-08-25T21:33:46.160Z,99.90
2022-08-25T21:38:47.057Z,99.90
2022-08-25T21:41:16.270Z,99.90
2022-08-25T21:43:43.172Z,99.90
2022-08-25T21:46:13.201Z,99.90
2022-08-25T21:48:40.028Z,99.90
2022-08-25T21:51:11.123Z,99.90
2022-08-25T21:53:38.010Z,99.90
2022-08-25T21:56:06.073Z,99.90
2022-08-25T21:58:33.377Z,99.90
2022-08-25T22:01:10.878Z,99.90
2022-08-25T22:06:09.090Z,99.90
2022-08-25T22:08:36.360Z,99.90
2022-08-25T22:13:31.469Z,99.90
2022-08-25T22:18:25.348Z,99.90
2022-08-25T22:23:20.514Z,99.90
2022-08-25T22:28:15.958Z,99.90
2022-08-25T22:33:10.033Z,99.90
2022-08-25T22:35:37.153Z,99.90
2022-08-25T22:38:06.633Z,99.90
2022-08-25T22:43:00.982Z,99.90
2022-08-25T22:45:28.255Z,99.90
2022-08-25T22:50:22.173Z,99.90
2022-08-25T22:52:48.880Z,99.90
2022-08-25T22:57:44.694Z,99.90
2022-08-25T23:00:13.792Z,99.90
2022-08-25T23:02:41.523Z,99.90
2022-08-25T23:05:08.718Z,99.90
2022-08-25T23:07:36.839Z,99.90
2022-08-25T23:10:06.794Z,99.90
2022-08-25T23:12:33.768Z,99.90
2022-08-25T23:15:00.508Z,99.90
2022-08-25T23:17:29.242Z,99.90
2022-08-25T23:19:56.044Z,99.90
2022-08-25T23:22:22.716Z,99.90
2022-08-25T23:27:23.837Z,99.90
2022-08-25T23:29:50.575Z,99.90
2022-08-25T23:32:17.646Z,99.90
2022-08-25T23:34:46.516Z,99.90
2022-08-25T23:37:13.853Z,99.90
2022-08-25T23:42:08.816Z,99.90
2022-08-25T23:44:36.703Z,99.90
2022-08-25T23:47:06.659Z,99.90
2022-08-25T23:49:33.508Z,99.90
2022-08-25T23:52:00.457Z,99.90
2022-08-25T23:54:31.522Z,99.90
2022-08-25T23:56:58.922Z,99.90
